Date,TemperatureHighF,TemperatureAvgF,TemperatureLowF,DewpointHighF,DewpointAvgF,DewpointLowF,HumidityHigh,HumidityAvg,HumidityLow,PressureMaxIn,PressureMinIn,WindSpeedMaxMPH,WindSpeedAvgMPH,GustSpeedMaxMPH,PrecipitationSumIn
2013-1-1,19.8,13.8,7.6,13.5,7.9,4.5,88,77,62,30.30,30.18,12,5,16,0.00
2013-1-2,33.0,20.0,6.9,24.2,14.1,3.9,89,78,58,30.27,30.11,15,6,22,0.00
2013-1-3,28.6,24.0,13.4,26.7,19.9,10.3,93,84,66,30.34,30.14,16,8,22,0.00
2013-1-4,34.6,22.2,11.3,25.8,18.1,8.7,93,85,67,30.32,30.21,15,9,24,0.00
2013-1-5,37.3,30.2,20.6,35.7,28.0,18.6,97,92,78,30.27,29.96,19,8,26,0.03
2013-1-6,35.6,23.1,15.5,33.9,20.1,13.3,94,88,80,30.36,29.95,15,8,20,0.00
2013-1-7,42.4,29.7,15.5,30.4,23.7,13.3,92,80,52,30.35,30.11,23,9,28,0.00
2013-1-8,46.8,36.6,27.5,35.0,30.5,24.4,89,79,63,30.15,30.02,18,7,23,0.00
2013-1-9,46.0,36.5,28.7,36.5,30.0,24.6,94,78,50,30.51,30.02,19,8,22,0.00
2013-1-10,44.1,33.9,26.0,41.5,27.7,22.6,99,79,50,30.51,29.84,22,9,30,0.64
2013-1-11,53.6,48.6,41.9,51.2,47.7,41.6,100,97,86,29.84,29.64,22,10,28,0.50
2013-1-12,53.4,36.5,23.7,49.3,31.4,-99.9,94,85,79,30.01,29.66,22,-1,25,0.00
2013-1-13,23.7,18.3,11.1,22.2,13.9,7.1,94,83,76,30.31,29.91,14,9,18,0.00
2013-1-14,23.4,14.1,7.0,15.1,9.3,4.3,91,81,64,30.51,30.31,8,2,10,0.00
2013-1-15,29.8,18.0,11.3,20.2,3.8,-99.9,91,72,61,30.49,30.17,5,-91,7,0.00
2013-1-16,34.0,23.6,12.9,31.9,7.1,-99.9,93,73,72,30.17,29.88,21,-119,26,0.01
2013-1-17,34.6,22.3,18.0,32.8,1.5,-99.9,94,64,56,30.44,30.12,13,-140,18,0.00
2013-1-18,44.5,29.7,18.5,35.7,10.6,-99.9,90,68,69,30.46,29.93,25,-128,30,0.00
2013-1-19,48.3,35.6,23.8,41.2,20.6,-99.9,86,71,55,30.05,29.75,34,-82,41,0.00
2013-1-20,23.6,16.1,11.7,15.4,7.3,5.0,78,68,57,30.36,30.05,26,12,30,0.00
2013-1-21,13.6,8.2,4.5,8.9,-0.8,-5.9,85,67,50,30.36,30.22,21,14,27,0.00
2013-1-22,12.6,6.9,-0.8,1.7,-2.2,-6.7,80,66,56,30.47,30.35,14,8,19,0.00
2013-1-23,24.3,16.3,10.7,15.2,8.8,1.3,84,72,61,30.45,30.16,19,8,27,0.00
2013-1-24,21.7,13.7,4.2,10.2,3.9,-2.3,76,65,53,30.69,30.37,15,9,21,0.00
2013-1-25,34.1,23.4,17.3,23.7,16.2,7.7,91,74,56,30.37,30.00,20,10,26,0.00
2013-1-26,28.0,19.7,9.7,17.2,12.0,5.8,84,72,53,30.44,30.25,10,5,12,0.00
2013-1-27,39.4,31.1,26.2,39.1,26.9,16.5,99,85,66,30.38,29.87,18,10,24,0.00
2013-1-28,49.7,43.3,39.4,49.7,42.9,39.1,100,99,94,29.96,29.73,19,8,24,0.06
2013-1-29,63.0,55.2,40.0,60.7,54.4,39.7,100,97,86,29.72,29.39,22,11,29,0.98
2013-1-30,40.0,31.1,17.7,39.7,29.9,12.9,100,95,81,29.72,29.24,22,14,32,0.35
2013-1-31,18.4,11.2,2.3,14.8,6.7,-2.7,87,82,76,30.29,29.72,24,15,30,0.00
2013-2-1,17.2,6.4,-1.4,15.0,1.5,-6.1,91,80,74,30.45,30.21,15,10,22,0.00
2013-2-2,24.4,17.0,9.1,23.1,13.2,4.8,95,85,73,30.21,30.06,17,7,20,0.00
2013-2-3,23.4,19.7,12.5,20.2,16.0,9.1,95,85,74,30.11,30.00,15,6,22,0.00
2013-2-4,27.4,22.4,11.9,23.7,18.7,8.2,92,86,75,30.03,29.86,17,8,21,0.00
2013-2-5,32.3,25.5,12.1,29.8,22.1,7.2,93,87,75,30.14,29.85,16,7,20,0.00
2013-2-6,42.3,31.1,18.7,35.2,26.8,15.7,90,84,73,30.23,30.06,14,7,19,0.00
2013-2-7,36.1,34.2,29.2,34.9,33.2,27.9,99,96,90,30.08,29.88,16,8,18,0.50
2013-2-8,29.1,24.2,17.9,27.8,21.7,16.5,95,90,84,30.43,30.05,17,9,23,0.00
2013-2-9,34.1,29.3,21.2,30.8,27.0,20.0,95,91,86,30.42,30.06,15,8,21,0.00
2013-2-10,47.4,40.0,32.8,46.0,38.1,30.2,99,93,77,30.07,29.45,26,16,34,0.32
2013-2-11,39.7,32.6,27.9,34.5,27.2,22.8,86,80,76,30.09,29.53,26,18,34,0.38
2013-2-12,32.5,28.1,25.8,27.5,24.0,21.7,93,85,75,30.14,29.93,15,7,19,0.00
2013-2-13,41.9,33.7,26.0,36.2,30.7,24.5,94,89,76,29.93,29.73,9,4,13,0.00
2013-2-14,41.8,36.8,32.4,34.5,32.1,28.2,94,83,64,30.02,29.66,19,10,26,0.00
2013-2-15,32.3,26.4,17.9,30.7,18.5,10.7,94,72,52,30.25,30.01,18,11,23,0.00
2013-2-16,23.1,17.1,13.0,12.5,9.9,7.9,83,73,61,30.25,30.17,13,7,19,0.00
2013-2-17,33.1,23.1,9.5,24.6,15.5,5.6,86,73,57,30.25,29.94,21,8,27,0.00
2013-2-18,52.5,39.0,25.9,45.4,33.8,24.0,98,82,69,29.94,29.46,21,13,28,0.55
2013-2-19,16.8,12.5,8.3,12.0,7.6,3.1,85,81,77,30.31,29.87,22,16,34,0.00
2013-2-20,20.8,12.5,5.5,14.9,7.5,0.7,89,80,74,30.46,30.31,13,6,15,0.00
2013-2-21,28.9,22.0,12.5,26.8,19.5,9.9,95,90,85,30.43,29.95,28,13,36,0.00
2013-2-22,34.4,28.1,24.8,32.1,26.1,22.8,96,92,86,29.96,29.82,22,12,26,0.00
2013-2-23,28.5,23.4,16.2,23.4,20.0,14.4,95,87,79,30.02,29.94,11,6,16,0.01
2013-2-24,35.6,24.3,12.8,27.5,20.1,10.9,95,84,68,30.16,30.02,7,3,8,0.00
2013-2-25,38.6,31.7,23.4,32.5,27.5,20.5,91,85,69,30.18,29.95,14,8,18,0.00
2013-2-26,35.5,33.5,31.5,32.7,31.1,29.9,98,91,80,29.96,29.55,28,20,37,0.00
2013-2-27,33.6,32.1,30.0,32.4,30.6,28.4,97,94,89,29.80,29.59,15,11,18,0.00
2013-2-28,35.7,33.3,27.7,32.1,30.1,24.1,95,88,81,30.12,29.80,16,10,17,0.00
2013-3-1,28.0,25.7,20.4,24.3,21.8,16.1,92,85,78,30.26,30.10,18,12,22,0.00
2013-3-2,26.6,20.1,11.4,19.0,14.7,9.3,91,79,65,30.27,30.22,13,6,15,0.00
2013-3-3,34.7,17.8,7.3,21.2,11.1,5.0,93,77,48,30.22,30.12,9,2,9,0.00
2013-3-4,31.4,27.2,17.1,27.5,22.4,9.8,87,82,71,30.15,29.97,26,16,30,0.00
2013-3-5,34.1,31.0,26.2,33.6,30.0,25.2,99,96,85,30.10,29.83,19,11,23,0.06
2013-3-6,31.2,27.7,21.6,27.1,24.9,19.9,96,89,82,30.36,30.10,17,8,19,0.00
2013-3-7,35.8,28.4,20.5,30.0,24.4,17.8,94,85,72,30.45,30.35,9,3,9,0.04
2013-3-8,37.3,29.2,18.0,31.3,25.2,15.8,94,85,76,30.48,30.28,20,10,22,0.00
2013-3-9,43.5,37.9,33.7,38.9,34.2,29.1,93,86,80,30.29,29.80,22,15,26,0.08
2013-3-10,44.6,41.6,39.6,43.9,41.1,37.6,100,98,85,29.81,29.53,17,8,19,0.72
2013-3-11,40.2,34.9,31.7,40.2,34.3,28.8,100,98,89,29.85,29.58,13,7,19,0.05
2013-3-12,35.7,30.3,25.9,31.6,26.4,21.2,94,85,72,30.10,29.85,21,12,29,0.00
2013-3-13,33.9,27.8,22.7,23.7,20.2,15.5,86,74,50,30.37,30.09,16,11,21,0.00
2013-3-14,36.6,30.3,23.8,33.1,27.0,20.1,93,87,74,30.38,30.08,14,6,17,0.00
2013-3-15,40.1,35.3,31.7,37.5,33.7,30.4,98,94,85,30.09,29.74,17,6,19,0.00
2013-3-16,34.7,32.2,30.5,33.9,29.2,24.7,99,89,78,30.16,29.72,17,9,22,0.00
2013-3-17,34.4,30.8,25.5,29.6,25.3,18.6,86,80,72,30.23,29.97,19,13,23,0.00
2013-3-18,34.8,30.1,21.5,33.7,27.0,15.3,97,88,71,29.96,29.66,23,13,35,0.00
2013-3-19,31.4,23.8,16.5,22.5,16.6,10.5,81,74,63,30.17,29.87,20,15,29,0.00
2013-3-20,25.9,19.4,12.6,20.3,11.1,5.5,79,70,60,30.19,30.09,21,16,28,0.01
2013-3-21,31.5,22.3,12.2,21.4,13.9,8.3,85,71,53,30.14,30.05,9,5,12,0.00
2013-3-22,40.4,29.5,19.6,26.5,20.9,15.8,90,71,50,30.10,30.04,7,3,10,0.00
2013-3-23,40.6,33.8,26.9,29.2,25.9,21.7,91,74,52,30.15,30.02,13,6,16,0.00
2013-3-24,35.3,32.3,29.8,31.6,29.4,25.6,97,89,79,30.05,29.71,21,14,24,0.00
2013-3-25,37.5,32.1,28.1,31.2,26.8,23.0,87,80,70,30.14,29.80,19,13,25,0.00
2013-3-26,39.9,35.0,32.4,30.4,27.8,25.0,85,75,57,30.30,30.14,10,6,14,0.00
2013-3-27,44.8,37.7,32.3,31.7,26.9,21.2,88,67,42,30.36,30.30,8,4,13,0.00
2013-3-28,51.7,39.7,29.6,35.0,28.8,23.7,88,66,45,30.39,30.29,7,2,7,0.00
2013-3-29,55.6,44.5,33.9,37.5,31.7,28.2,85,62,40,30.33,30.23,8,4,8,0.00
2013-3-30,57.8,46.4,36.0,44.8,36.5,26.4,96,69,53,30.24,29.85,16,9,23,0.00
2013-3-31,56.1,45.1,34.3,44.8,38.2,27.2,98,78,50,29.94,29.76,23,10,32,0.00
2013-4-1,40.0,33.3,28.3,27.5,22.1,17.1,83,65,43,30.24,29.94,15,9,23,0.00
2013-4-2,43.7,32.9,24.3,24.2,20.8,15.4,86,64,33,30.35,30.24,15,6,20,0.00
2013-4-3,47.5,36.5,23.1,24.4,20.9,13.0,90,56,32,30.47,30.32,10,5,15,0.00
2013-4-4,59.1,44.6,29.1,38.1,28.6,20.3,78,55,35,30.32,29.99,11,6,17,0.00
2013-4-5,54.0,43.7,33.0,36.3,28.9,18.5,85,59,32,30.23,30.04,23,10,27,0.00
2013-4-6,69.0,51.8,37.0,51.4,36.4,17.7,90,58,34,30.10,29.58,25,16,33,0.11
2013-4-7,63.7,50.1,39.1,48.2,42.2,36.8,92,76,46,29.95,29.66,17,7,25,0.00
2013-4-8,70.6,56.3,43.0,58.2,51.2,38.9,98,84,60,29.90,29.51,26,12,35,0.53
2013-4-9,65.0,51.0,41.7,61.0,48.6,40.6,96,92,84,29.92,29.77,26,16,30,0.09
2013-4-10,42.5,40.8,36.6,41.4,39.9,35.8,99,97,93,30.16,29.75,28,18,34,1.00
2013-4-11,49.6,43.0,37.9,48.2,42.1,36.3,99,97,92,29.73,29.58,34,13,39,0.08
2013-4-12,42.9,38.8,36.6,40.5,35.6,32.3,97,88,78,29.89,29.59,17,10,23,0.01
2013-4-13,46.5,40.3,34.1,37.5,33.5,29.8,94,78,61,29.99,29.88,15,8,21,0.00
2013-4-14,75.3,55.3,38.9,55.4,44.9,35.5,90,70,42,29.99,29.57,26,16,36,0.01
2013-4-15,66.2,56.7,51.5,57.5,52.6,44.5,100,88,55,29.87,29.59,28,9,44,0.41
2013-4-17,53.4,45.5,40.9,53.1,44.6,38.3,100,97,86,30.25,29.73,28,17,35,2.22
2013-4-18,62.6,51.8,38.2,61.8,50.7,33.4,100,96,81,29.75,29.39,29,14,34,1.78
2013-4-19,38.6,37.0,34.5,34.6,32.2,30.4,88,83,75,29.99,29.51,21,16,29,0.04
2013-4-20,47.7,38.6,30.9,32.8,29.6,25.3,94,72,45,30.40,29.99,10,5,14,0.00
2013-4-21,55.7,45.2,35.0,43.2,34.9,28.5,80,68,54,30.50,30.28,24,15,31,0.00
2013-4-22,67.0,55.1,42.6,46.2,41.1,35.8,78,61,38,30.30,30.00,16,9,22,0.00
2013-4-23,57.0,44.9,38.3,50.4,43.1,35.9,97,93,64,30.04,29.91,15,7,20,0.41
2013-4-24,51.4,43.7,36.8,36.1,33.3,28.7,89,68,43,30.12,29.98,14,9,19,0.00
2013-4-25,52.6,44.7,37.3,38.9,32.2,23.2,92,64,32,30.32,30.07,22,9,25,0.05
2013-4-26,66.9,53.9,41.3,51.5,41.8,29.9,83,64,50,30.32,30.21,21,11,28,0.00
2013-4-27,67.0,57.6,45.7,51.6,47.9,43.9,95,72,49,30.27,29.98,13,5,17,0.00
2013-4-28,70.0,59.8,50.6,54.2,51.8,49.0,96,76,53,29.98,29.80,7,3,9,0.00
2013-4-29,76.6,64.3,49.1,60.3,55.2,48.2,98,75,48,29.88,29.69,20,9,27,0.00
2013-4-30,79.6,67.8,61.2,63.1,58.7,55.0,93,75,44,29.88,29.70,20,10,30,0.00
2013-5-1,84.7,75.5,66.3,58.2,54.6,47.7,74,50,29,30.07,29.88,17,8,21,0.00
2013-5-2,68.8,53.8,43.4,56.0,46.6,41.1,94,77,60,30.21,30.07,20,13,24,0.04
2013-5-3,55.1,47.1,41.0,54.3,46.1,39.9,98,96,93,30.13,29.90,21,15,26,0.37
2013-5-4,71.5,60.1,50.9,59.4,54.8,49.8,96,84,57,30.02,29.91,17,9,21,0.00
2013-5-5,75.1,62.5,49.1,55.9,50.2,41.7,100,69,32,30.02,29.92,19,8,24,0.01
2013-5-6,76.5,64.7,53.6,49.5,44.7,36.2,82,52,24,30.03,29.94,15,8,21,0.00
2013-5-7,80.2,67.7,52.3,48.8,40.7,30.8,77,42,18,30.04,29.94,9,4,11,0.00
2013-5-8,81.4,70.5,52.0,52.3,46.8,40.0,80,46,24,30.01,29.92,8,3,10,0.00
2013-5-9,73.5,64.9,62.0,62.2,58.6,49.2,98,81,52,29.94,29.76,14,6,18,0.10
2013-5-10,62.6,50.9,46.9,62.0,48.5,45.6,98,92,83,29.99,29.75,15,9,20,0.01
2013-5-11,59.5,50.8,42.5,52.7,37.7,21.8,99,66,26,30.09,29.87,25,12,33,0.01
2013-5-12,57.0,47.0,36.8,31.4,27.8,23.0,72,50,29,30.16,30.08,16,8,24,0.00
2013-5-13,69.3,54.9,35.9,41.1,31.7,20.4,83,46,19,30.18,29.95,12,4,17,0.00
2013-5-14,95.2,75.2,57.5,61.8,51.5,40.5,67,47,18,29.95,29.61,18,10,22,0.00
2013-5-15,83.3,76.1,65.2,58.9,49.7,40.4,59,41,22,29.81,29.62,15,8,20,0.00
2013-5-16,84.9,72.9,55.8,51.9,46.0,40.6,70,41,22,29.91,29.81,20,6,24,0.00
2013-5-17,81.3,70.0,63.4,59.9,54.4,47.9,69,58,44,29.96,29.89,16,6,18,0.00
2013-5-18,83.9,78.3,71.4,64.9,62.6,60.6,76,59,48,29.99,29.88,13,8,20,0.00
2013-5-19,91.2,76.8,63.7,68.4,64.4,59.8,92,68,43,29.90,29.66,22,11,29,0.18
2013-5-20,85.4,74.0,65.0,69.4,63.1,59.5,95,71,43,29.75,29.59,21,11,30,0.45
2013-5-21,79.7,70.8,63.4,67.7,62.1,57.8,93,76,48,29.66,29.61,21,11,29,0.00
2013-5-22,72.1,65.1,60.5,63.6,58.9,54.8,93,81,56,29.74,29.58,15,6,19,0.10
2013-5-23,63.2,57.1,46.7,57.8,51.9,43.3,97,84,57,30.27,29.74,19,10,23,0.15
2013-5-24,66.4,53.0,37.6,43.4,39.1,35.2,91,62,34,30.44,30.27,11,6,16,0.00
2013-5-25,57.9,52.7,47.8,48.4,42.4,34.4,84,68,47,30.39,30.27,15,7,17,0.11
2013-5-26,59.3,54.0,45.7,55.9,49.2,39.3,95,84,63,30.27,30.08,19,11,23,0.34
2013-5-27,68.8,62.7,56.8,65.6,60.6,55.5,98,93,86,30.08,29.80,17,12,20,0.07
2013-5-28,78.7,69.7,61.3,74.2,67.2,60.5,99,92,85,29.82,29.65,18,8,24,0.15
2013-5-29,85.1,73.7,62.6,74.1,67.3,60.8,99,81,58,29.90,29.69,24,7,29,0.13
2013-5-30,83.9,74.0,63.7,73.2,67.5,61.5,97,81,60,29.85,29.67,26,10,38,0.85
2013-5-31,74.5,69.0,63.5,70.0,65.8,62.3,97,90,68,29.80,29.65,23,9,27,0.16
2013-6-1,76.8,69.2,64.1,69.8,64.8,59.8,98,86,64,29.73,29.61,15,9,21,0.37
2013-6-2,63.7,58.5,51.0,60.8,52.6,46.8,97,81,69,30.03,29.73,15,7,19,0.00
2013-6-3,70.7,60.1,47.1,52.8,48.9,45.0,96,69,43,30.12,30.01,8,2,12,0.00
2013-6-4,72.9,64.4,52.8,53.0,49.6,43.5,89,60,43,30.14,30.02,17,7,22,0.00
2013-6-5,67.9,61.5,56.9,60.9,55.0,48.1,92,80,62,30.08,29.90,16,9,18,0.23
2013-6-6,68.3,60.7,56.0,61.0,56.0,51.8,97,85,70,29.92,29.85,12,8,16,0.43
2013-6-7,71.8,63.3,55.8,58.1,53.2,49.1,89,71,49,29.94,29.88,11,7,16,0.00
2013-6-8,77.4,66.8,51.7,56.6,48.7,43.4,83,55,34,29.96,29.91,14,4,19,0.00
2013-6-9,83.7,70.7,60.9,65.6,58.0,45.5,93,66,41,29.95,29.75,17,10,24,0.06
2013-6-10,79.1,70.2,59.2,66.6,62.9,58.4,99,79,55,29.85,29.72,11,4,16,0.00
2013-6-11,88.6,76.0,60.9,69.9,64.7,58.6,97,71,39,29.89,29.75,13,3,17,0.00
2013-6-12,92.7,76.6,66.5,75.5,70.2,66.2,99,82,52,29.86,29.54,25,8,26,0.79
2013-6-13,72.4,66.5,62.9,66.2,62.1,58.6,99,86,64,30.00,29.60,14,9,18,0.06
2013-6-14,78.5,68.2,55.3,62.8,57.9,52.5,91,71,49,30.12,29.95,12,5,16,0.00
2013-6-15,82.7,72.1,64.4,71.6,65.4,58.2,91,80,61,30.01,29.81,25,7,38,0.08
2013-6-16,84.8,73.1,66.3,69.3,65.7,60.8,96,80,45,29.90,29.84,17,5,19,0.00
2013-6-17,87.1,81.6,67.7,65.2,59.8,53.3,87,49,32,29.92,29.82,9,4,13,0.00
2013-6-18,77.7,68.2,58.4,62.0,57.0,49.9,84,68,53,30.04,29.86,15,10,20,0.00
2013-6-19,82.8,69.4,53.4,63.1,55.4,47.8,82,63,42,30.11,30.01,11,5,14,0.00
2013-6-20,90.7,78.3,62.9,66.1,60.9,55.3,78,57,37,30.10,29.99,9,5,14,0.00
2013-6-21,83.0,74.4,67.4,71.3,67.1,63.2,97,79,60,30.15,29.90,20,8,26,0.32
2013-6-22,83.6,75.8,66.7,77.1,70.8,64.9,98,85,72,30.09,29.89,21,9,26,0.24
2013-6-23,87.9,74.3,67.9,76.3,69.4,65.4,96,85,64,30.00,29.83,17,6,23,0.06
2013-6-24,84.1,71.2,67.2,75.2,68.3,65.2,98,91,71,30.06,29.84,21,6,46,0.98
2013-6-25,83.4,76.5,68.1,77.7,72.9,65.4,98,89,75,29.92,29.76,16,5,22,0.06
2013-6-26,83.4,79.9,75.7,74.1,72.8,71.1,91,79,69,29.74,29.68,8,4,12,0.02
2013-6-27,87.9,78.3,69.8,75.4,70.6,63.0,99,79,52,29.78,29.69,16,6,26,0.00
2013-6-28,81.2,72.4,63.4,67.1,63.5,60.6,93,75,52,29.73,29.61,16,8,23,0.00
2013-6-29,72.3,66.8,63.4,66.7,63.9,59.4,98,91,71,29.77,29.58,14,7,19,0.33
2013-6-30,74.5,66.1,59.3,59.1,55.5,52.7,82,69,54,29.98,29.93,8,5,10,0.00
2013-7-1,77.9,67.5,55.6,57.4,53.7,49.6,87,64,38,30.06,29.97,17,9,22,0.00
2013-7-2,76.5,65.6,55.5,58.0,54.0,44.2,91,69,33,30.07,30.01,15,7,22,0.00
2013-7-3,78.5,64.5,54.5,64.8,58.5,53.1,96,82,54,30.06,30.00,6,2,8,0.00
2013-7-4,78.5,65.7,61.0,67.8,61.9,58.8,96,88,67,30.06,30.02,6,2,8,0.00
2013-7-6,86.1,80.6,72.6,71.0,68.5,65.8,89,68,52,29.97,29.92,8,4,13,0.00
2013-7-7,91.6,80.0,69.4,74.1,71.0,67.9,96,76,50,29.96,29.89,9,4,13,0.00
2013-7-8,87.3,78.9,70.7,78.7,73.4,69.5,97,84,70,29.99,29.90,15,8,19,0.46
2013-7-9,86.5,79.1,73.4,80.2,75.8,72.2,97,90,77,29.96,29.82,14,4,19,0.00
2013-7-10,82.0,76.9,66.1,77.9,68.8,60.9,99,77,55,29.98,29.81,12,6,17,0.00
2013-7-11,80.2,70.8,60.3,65.7,60.0,55.3,95,71,46,30.09,29.98,10,4,14,0.00
2013-7-12,83.3,71.2,58.8,64.8,59.4,55.2,89,69,43,30.13,30.04,5,2,8,0.00
2013-7-13,82.7,72.7,61.5,66.7,62.1,56.3,93,71,48,30.13,30.05,10,5,14,0.00
2013-7-14,86.7,77.0,65.6,73.4,69.1,62.4,92,78,59,30.16,30.10,9,5,17,0.00
2013-7-15,92.1,80.5,69.6,78.0,73.0,67.8,95,79,57,30.22,30.15,9,4,14,0.00
2013-7-16,92.4,83.6,73.7,79.4,76.0,72.8,98,79,60,30.26,30.19,6,3,9,0.00
2013-7-17,86.0,85.4,84.7,78.0,77.1,76.6,79,76,75,30.27,30.27,3,3,8,0.00
2013-7-18,92.4,87.7,80.0,78.9,76.5,74.7,86,70,57,30.00,29.91,10,6,14,0.00
2013-7-19,93.0,83.0,72.0,76.6,73.7,68.0,92,75,51,29.91,29.72,18,8,28,0.15
2013-7-20,85.1,73.5,66.0,73.7,68.2,63.9,93,84,58,29.89,29.79,6,3,8,0.00
2013-7-21,86.3,74.4,64.5,73.0,68.2,63.6,98,82,57,29.91,29.81,12,5,17,0.00
2013-7-22,87.0,75.9,64.4,74.9,68.9,63.7,99,81,60,29.86,29.70,13,3,15,0.09
2013-7-23,77.3,69.7,60.1,67.5,62.6,56.5,98,80,53,29.95,29.69,12,6,17,0.02
2013-7-24,76.0,64.9,53.8,59.7,56.1,53.0,98,75,50,30.06,29.95,9,4,14,0.00
2013-7-25,80.9,68.9,54.3,64.3,59.2,52.0,93,73,52,30.09,30.00,9,3,11,0.00
2013-7-26,77.1,68.3,59.3,70.7,63.8,56.7,96,86,59,30.00,29.85,16,7,21,0.14
2013-7-27,64.1,58.9,52.2,56.9,52.3,48.4,96,80,60,29.95,29.88,12,6,19,0.00
2013-7-28,69.5,60.3,50.0,55.0,52.2,47.6,94,76,54,30.03,29.88,11,6,18,0.00
2013-7-29,79.7,63.4,48.8,62.6,55.9,48.2,98,79,51,30.14,30.03,7,2,9,0.00
2013-7-30,68.3,64.3,58.7,66.2,62.2,56.9,99,93,83,30.14,30.03,13,6,18,0.11
2013-7-31,78.2,69.2,64.8,69.3,66.3,64.5,100,91,70,30.03,29.94,7,3,11,0.01
2013-8-1,79.8,69.2,56.7,65.5,59.8,54.2,100,76,43,30.00,29.90,13,4,20,0.01
2013-8-2,84.0,74.6,65.7,71.2,66.1,60.6,94,76,59,29.93,29.82,10,5,17,0.09
2013-8-3,79.2,71.0,60.4,64.3,58.1,52.3,91,66,40,30.10,29.93,9,5,16,0.00
2013-8-4,80.7,68.5,53.6,61.9,56.6,51.6,95,68,38,30.18,30.07,7,3,11,0.00
2013-8-5,74.2,66.7,60.9,66.9,62.0,56.3,98,85,75,30.08,29.84,14,6,22,0.44
2013-8-6,85.2,74.2,67.3,77.0,71.5,66.3,99,92,71,29.88,29.78,8,4,11,0.00
2013-8-7,85.3,76.5,66.0,75.8,70.7,63.9,100,84,55,29.93,29.75,9,5,14,0.00
2013-8-8,78.9,70.3,63.4,67.7,64.7,61.7,98,84,62,30.00,29.92,11,4,16,0.00
2013-8-9,81.4,70.9,58.9,71.1,63.5,55.1,94,78,61,30.04,29.96,8,3,14,0.04
2013-8-10,80.0,69.5,58.8,64.3,59.4,55.5,94,73,45,30.12,30.04,9,3,12,0.00
2013-8-11,82.8,70.2,55.9,68.5,62.9,55.1,98,79,55,30.12,30.00,10,2,15,0.00
2013-8-12,83.4,73.4,65.7,71.5,66.4,60.5,96,80,59,30.01,29.85,9,4,14,0.00
2013-8-13,72.6,64.1,52.9,60.6,53.0,46.9,95,70,42,30.13,29.93,13,6,17,0.00
2013-8-14,75.1,62.1,47.9,58.0,51.8,46.4,96,72,42,30.22,30.12,7,2,13,0.00
2013-8-15,77.4,64.4,54.7,58.2,54.6,49.6,92,73,40,30.17,30.08,4,1,8,0.00
2013-8-16,80.5,67.7,53.1,60.9,56.7,51.3,99,71,42,30.16,30.11,8,3,13,0.00
2013-8-17,80.4,69.1,56.3,63.3,57.2,53.4,90,68,45,30.21,30.13,8,4,11,0.00
2013-8-18,83.2,69.5,52.6,63.8,58.5,50.9,95,71,44,30.19,30.07,6,2,9,0.00
2013-8-19,84.3,72.5,59.3,67.9,63.3,56.9,93,75,50,30.10,30.00,9,3,14,0.00
2013-8-20,86.1,75.0,64.8,70.4,66.8,63.6,96,78,54,30.07,29.99,11,4,17,0.00
2013-8-21,89.0,78.0,67.7,71.4,68.7,65.6,94,75,50,30.04,29.93,12,5,18,0.00
2013-8-22,75.1,71.4,66.0,70.5,68.4,64.8,97,90,83,30.13,29.96,13,4,17,0.55
2013-8-23,81.5,70.4,60.2,68.8,61.7,55.8,100,77,47,30.15,30.07,11,5,15,0.01
2013-8-24,85.4,72.8,59.1,71.8,64.7,54.9,94,77,58,30.22,30.13,9,5,15,0.00
2013-8-25,89.1,77.8,67.8,72.7,68.7,64.4,91,75,52,30.21,30.09,12,6,17,0.00
2013-8-26,91.3,78.4,65.3,75.5,70.4,63.2,94,78,53,30.12,29.95,11,4,17,0.00
2013-8-27,94.1,81.7,70.6,76.0,73.0,69.4,97,77,50,29.97,29.81,15,6,23,0.00
2013-8-28,88.1,79.7,72.4,78.9,73.0,68.2,94,80,72,29.99,29.82,9,4,13,0.00
2013-8-29,87.4,75.6,65.7,74.1,70.5,65.1,100,86,56,30.05,29.94,8,3,11,0.00
2013-8-30,97.1,80.8,70.4,78.9,72.1,68.4,97,78,40,29.94,29.71,15,5,19,0.25
2013-8-31,82.0,74.3,68.9,73.5,70.5,67.8,97,88,72,29.81,29.74,10,6,13,0.00
2013-9-1,89.4,74.7,60.4,75.1,67.9,60.1,100,81,53,29.82,29.69,9,3,15,0.01
2013-9-2,77.2,67.9,58.7,64.7,60.4,55.5,96,78,54,29.98,29.81,9,5,14,0.00
2013-9-3,78.2,64.9,51.4,58.5,55.5,50.5,97,74,46,30.08,29.97,5,2,8,0.00
2013-9-4,85.0,69.2,53.1,64.8,58.8,51.9,97,73,41,30.12,30.02,7,2,10,0.00
2013-9-5,78.5,69.5,61.6,67.6,62.8,53.6,99,80,60,30.20,30.09,12,6,17,0.00
2013-9-6,88.2,72.7,58.8,68.4,61.8,53.2,88,70,50,30.19,29.97,10,4,14,0.00
2013-9-7,89.9,76.4,65.2,70.9,66.6,62.6,92,74,48,29.98,29.84,11,4,17,0.03
2013-9-8,81.8,74.5,69.2,72.2,69.5,67.2,94,85,72,29.97,29.87,14,8,19,0.00
2013-9-9,97.2,82.3,69.2,76.3,72.6,67.4,98,75,47,29.90,29.76,14,7,17,0.00
2013-9-10,95.6,83.1,67.9,71.2,66.3,63.2,87,60,35,29.96,29.84,17,8,25,0.00
2013-9-11,88.5,77.8,70.5,73.2,68.5,66.0,92,74,51,30.01,29.94,11,4,17,0.00
2013-9-12,79.4,69.5,58.1,68.4,57.4,49.3,99,69,38,30.08,29.95,16,6,22,0.00
2013-9-13,69.4,58.2,47.6,51.8,43.1,35.1,91,62,29,30.19,30.07,12,5,16,0.00
2013-9-14,74.2,59.2,42.4,51.0,45.6,40.2,96,65,35,30.18,30.00,8,3,11,0.00
2013-9-15,60.5,58.0,55.1,59.0,54.5,47.5,97,88,70,30.17,29.95,9,4,13,0.73
2013-9-16,68.4,58.2,48.3,56.2,50.8,46.2,97,78,48,30.36,30.17,12,7,15,0.00
2013-9-17,71.3,58.7,46.0,59.6,52.9,44.8,97,82,60,30.32,30.07,11,5,15,0.03
2013-9-18,78.1,69.9,62.2,71.4,64.1,56.1,95,82,70,30.07,29.86,11,5,15,0.10
2013-9-19,93.9,79.7,68.4,72.3,69.8,65.1,96,75,46,29.89,29.70,16,7,25,0.13
2013-9-20,71.4,65.9,56.4,67.1,60.7,52.8,99,84,57,29.85,29.73,14,7,19,0.23
2013-9-21,67.6,58.0,49.0,53.9,50.2,47.3,98,77,52,29.95,29.83,11,5,17,0.00
2013-9-22,69.5,56.6,44.0,51.3,47.7,42.4,96,75,43,30.05,29.94,7,3,11,0.00
2013-9-23,72.4,58.7,47.0,52.6,49.3,45.2,95,74,46,30.09,29.98,11,6,15,0.00
2013-9-24,74.6,60.5,49.1,54.5,51.1,47.1,93,74,45,30.01,29.89,12,7,24,0.00
2013-9-25,76.2,61.7,48.8,55.3,51.5,48.0,98,73,39,29.95,29.88,10,6,15,0.00
2013-9-26,79.8,63.2,49.0,58.2,53.1,48.2,98,73,43,30.04,29.94,12,6,16,0.00
2013-9-27,82.8,68.3,54.2,56.6,52.3,48.6,89,61,31,30.11,29.99,15,7,18,0.00
2013-9-28,84.1,68.4,57.7,67.3,59.2,52.7,96,74,48,30.01,29.84,20,10,30,0.04
2013-9-29,71.8,59.1,47.6,57.0,48.1,41.0,100,72,34,30.07,29.96,9,4,17,0.01
2013-9-30,78.3,62.3,47.2,57.1,48.9,44.3,95,66,34,29.99,29.83,12,6,16,0.00
2013-10-1,83.9,70.0,58.9,66.1,62.6,55.9,97,80,51,29.94,29.85,16,8,26,0.00
2013-10-2,82.7,70.7,59.3,65.0,57.4,40.4,99,68,27,30.05,29.92,16,6,21,0.00
2013-10-3,80.0,71.0,66.5,71.9,68.1,63.5,99,91,73,29.92,29.78,12,5,16,0.24
2013-10-4,76.9,70.6,66.3,72.6,68.5,63.9,98,93,77,29.95,29.85,15,6,18,0.51
2013-10-5,76.8,70.4,59.3,73.5,67.3,52.4,98,90,74,29.88,29.73,14,6,20,0.11
2013-10-6,59.2,49.9,43.5,53.6,43.3,40.0,97,79,55,29.80,29.71,14,6,20,0.00
2013-10-7,71.2,55.5,41.1,51.2,46.7,40.6,99,76,42,30.07,29.78,13,6,18,0.01
2013-10-8,78.4,62.6,47.6,53.9,48.5,44.6,93,64,31,30.17,30.07,13,4,17,0.00
2013-10-9,74.9,61.2,49.4,51.8,47.4,42.9,91,64,32,30.20,30.09,10,5,14,0.00
2013-10-10,77.4,61.8,49.7,57.2,52.0,46.3,89,73,47,30.15,30.00,9,4,14,0.00
2013-10-11,79.0,66.4,56.5,61.7,56.4,53.0,91,72,46,30.02,29.87,14,8,22,0.00
2013-10-12,71.8,63.3,47.9,62.6,52.6,40.4,91,70,35,30.19,29.88,13,6,21,0.00
2013-10-13,64.9,52.5,39.2,46.1,38.6,33.4,95,63,32,30.40,30.19,9,3,15,0.00
2013-10-14,65.5,52.2,35.9,47.7,42.3,33.1,93,71,44,30.40,30.07,15,8,19,0.00
2013-10-15,68.8,57.6,46.1,63.7,51.1,42.4,98,79,64,30.07,29.75,17,10,20,0.20
2013-10-16,52.8,50.2,44.5,47.5,46.2,41.7,94,86,80,29.96,29.84,13,8,19,0.00
2013-10-17,58.8,49.9,44.0,48.0,44.0,38.1,98,82,49,29.94,29.83,11,5,16,0.17
2013-10-18,49.3,44.9,36.3,43.3,40.0,34.7,98,83,70,29.98,29.84,12,5,17,0.00
2013-10-19,54.2,44.3,33.4,40.9,37.9,31.9,95,79,50,29.95,29.79,16,6,22,0.00
2013-10-20,63.2,49.1,36.6,48.2,42.4,34.5,97,79,54,29.86,29.72,12,4,16,0.00
2013-10-21,54.6,43.1,31.0,46.5,32.2,24.6,84,66,43,30.00,29.81,17,8,24,0.00
2013-10-22,38.0,33.9,26.7,36.9,31.8,23.6,98,92,75,30.02,29.93,8,3,10,0.08
2013-10-23,44.0,37.3,31.8,35.0,32.0,29.9,98,82,63,30.07,29.97,10,5,15,0.01
2013-10-24,40.5,36.9,28.9,34.9,28.8,24.4,90,73,55,30.35,30.06,14,7,21,0.00
2013-10-25,52.9,38.4,23.3,35.0,27.8,21.3,94,69,39,30.44,30.06,16,7,24,0.00
2013-10-26,53.5,45.6,33.3,37.5,32.0,27.6,81,60,44,30.11,29.89,18,10,24,0.00
2013-10-27,56.3,41.3,28.4,35.6,30.7,25.6,92,69,39,30.10,29.97,13,5,20,0.00
2013-10-28,58.8,44.1,33.4,44.7,36.6,29.2,87,75,54,30.36,30.06,18,9,21,0.00
2013-10-29,58.2,46.6,35.6,47.0,39.6,33.9,96,78,52,30.35,30.12,14,10,16,0.00
2013-10-30,60.9,54.0,49.7,60.9,53.5,46.5,100,98,88,30.11,29.75,14,7,17,0.81
2013-10-31,64.1,57.2,44.3,63.4,56.6,42.0,100,98,91,29.74,29.26,16,10,25,0.71
2013-11-1,47.9,45.2,41.0,45.9,43.2,40.4,99,93,87,29.77,29.44,13,7,16,0.01
2013-11-2,49.9,41.9,36.1,41.4,38.0,33.2,99,87,64,30.16,29.77,12,5,18,0.01
2013-11-3,52.6,42.5,30.7,41.9,36.4,29.4,98,80,59,30.31,30.16,14,6,18,0.00
2013-11-4,58.0,50.1,42.5,47.0,42.5,37.6,83,76,58,30.23,30.05,19,11,24,0.00
2013-11-5,55.4,52.8,50.4,53.5,50.2,46.7,98,91,78,30.23,29.90,19,7,27,0.09
2013-11-6,56.9,45.1,32.6,56.9,43.1,29.4,100,93,81,30.21,29.76,21,11,28,0.50
2013-11-7,40.0,33.4,27.2,36.3,30.9,26.1,96,91,81,30.29,30.21,13,5,17,0.00
2013-11-8,50.5,39.5,26.5,38.3,32.7,25.0,97,78,53,30.35,29.88,21,6,35,0.00
2013-11-9,58.6,49.0,39.5,43.8,40.2,32.3,86,72,56,30.17,29.85,26,12,33,0.00
2013-11-10,48.3,39.9,30.7,36.3,32.9,28.1,91,77,56,30.38,30.17,10,6,16,0.00
2013-11-11,46.6,37.2,22.3,39.0,31.9,18.1,97,81,69,30.58,30.10,17,9,24,0.00
2013-11-12,31.7,23.7,18.5,22.7,18.1,14.7,89,80,62,30.77,30.58,11,6,18,0.00
2013-11-13,42.1,30.2,16.7,25.0,20.1,14.3,91,68,42,30.66,30.18,18,10,25,0.01
2013-11-14,52.2,40.4,31.2,32.5,27.3,22.4,74,60,44,30.18,29.92,21,11,28,0.00
2013-11-15,53.6,43.2,35.2,38.7,32.8,26.5,86,67,51,29.98,29.89,13,8,20,0.00
2013-11-16,59.5,50.9,39.7,57.2,49.0,36.0,96,93,85,29.90,29.51,25,12,30,0.10
2013-11-17,68.6,54.4,42.0,65.0,52.1,38.7,100,92,82,29.79,29.13,29,14,32,0.85
2013-11-18,43.2,37.9,30.1,38.8,32.4,27.0,90,81,62,30.29,29.79,19,11,25,0.00
2013-11-19,41.0,35.0,25.4,32.3,29.6,23.9,95,81,65,30.38,30.26,14,7,17,0.00
2013-11-20,40.9,37.5,33.3,38.6,33.7,29.4,94,86,78,30.27,30.07,18,12,21,0.21
2013-11-21,47.5,43.8,40.9,44.4,41.5,38.5,96,92,86,30.24,30.09,8,4,13,0.00
2013-11-22,41.7,34.4,24.2,40.1,31.1,22.0,96,88,75,30.51,30.24,18,9,21,0.01
2013-11-23,24.2,20.5,12.4,22.0,13.3,7.2,91,74,52,30.78,30.50,20,10,26,0.00
2013-11-24,28.5,18.7,9.4,14.6,9.6,6.0,88,69,41,30.78,30.41,15,7,18,0.00
2013-11-25,32.6,28.6,21.7,29.6,23.1,14.3,94,80,58,30.41,30.11,21,10,27,0.00
2013-11-26,33.2,27.6,15.1,29.0,22.5,7.7,94,82,65,30.26,30.07,16,8,21,0.00
2013-11-27,26.4,18.7,10.9,18.2,11.6,5.7,82,74,57,30.33,30.25,14,6,17,0.00
2013-11-28,33.1,25.7,19.7,21.3,17.4,13.9,90,71,60,30.54,30.19,11,5,14,0.00
2013-11-29,35.4,28.1,15.4,24.8,20.2,12.9,94,73,54,30.65,30.39,11,6,13,0.00
2013-11-30,51.2,37.5,27.8,36.1,30.4,24.5,90,76,55,30.39,30.06,14,6,19,0.00
2013-12-1,43.9,35.5,30.1,34.4,30.6,28.2,96,83,63,30.14,29.99,10,4,13,0.00
2013-12-2,42.3,37.4,32.9,37.0,33.5,30.7,95,86,71,29.99,29.70,16,9,21,0.06
2013-12-3,48.0,42.6,38.4,48.0,42.3,37.1,100,99,94,29.71,29.64,16,7,17,0.00
2013-12-4,52.6,46.5,31.4,52.6,46.2,29.8,100,99,92,29.74,29.47,18,10,27,0.02
2013-12-5,31.4,22.6,18.3,29.9,17.8,12.3,94,82,74,30.33,29.74,18,12,26,0.00
2013-12-6,18.4,14.8,9.3,12.8,9.2,5.0,84,78,68,30.63,30.31,11,7,14,0.00
2013-12-7,18.1,10.9,3.8,7.7,4.8,0.5,87,77,57,30.78,30.63,7,4,10,0.00
2013-12-8,23.0,19.4,13.0,21.6,15.9,7.4,96,86,73,30.67,30.01,18,10,22,0.00
2013-12-9,22.4,13.7,-5.6,21.4,10.7,-8.5,96,88,76,30.29,30.00,18,9,22,0.00
2013-12-10,20.8,14.3,-4.5,15.9,8.7,-7.6,89,78,71,30.36,30.07,20,10,29,0.00
2013-12-11,18.4,9.2,-8.8,15.7,4.9,-13.2,93,83,64,30.65,30.32,13,4,17,0.00
2013-12-12,20.4,9.1,-6.5,13.9,4.2,-10.1,87,80,73,30.63,30.30,16,6,20,0.00
2013-12-13,29.0,24.9,14.8,27.5,21.3,12.1,95,86,78,30.26,30.10,16,11,20,0.00
2013-12-14,30.1,25.9,15.5,29.4,24.3,13.6,98,93,88,30.12,29.97,17,11,21,0.00
2013-12-15,19.1,12.7,8.9,16.7,8.2,4.7,90,82,76,30.18,30.01,18,7,24,0.00
2013-12-16,18.5,13.9,7.2,17.1,10.3,2.1,94,85,74,30.19,30.06,9,5,10,0.00
2013-12-17,22.4,21.1,18.4,21.4,19.9,17.0,96,95,94,30.14,30.04,14,8,18,0.00
2013-12-19,36.1,35.0,33.9,34.2,33.3,31.7,99,94,90,29.92,29.79,15,11,19,0.12
2013-12-20,34.1,30.6,26.9,33.8,30.2,26.2,99,98,97,29.86,29.75,16,8,20,0.11
2013-12-21,31.6,28.4,26.4,31.4,27.8,25.7,99,98,96,29.89,29.64,11,5,12,0.00
2013-12-22,32.3,32.1,31.9,32.1,31.9,31.7,99,99,99,29.66,29.63,10,9,12,0.00
2013-12-23,3.9,0.5,-4.3,0.0,-3.3,-7.4,86,84,82,30.56,30.44,7,4,11,0.00
2013-12-24,-2.1,-6.3,-8.6,-6.2,-9.4,-11.7,87,86,80,30.66,30.56,4,2,8,0.00
2013-12-26,33.9,30.5,21.1,31.4,27.3,19.0,96,88,80,30.31,30.18,14,6,18,0.00
2013-12-27,38.4,30.6,22.1,33.6,27.9,21.1,97,90,80,30.31,30.12,15,6,17,0.01
2013-12-28,44.6,36.9,29.2,39.5,33.2,27.7,97,87,70,30.13,29.82,17,8,21,0.01
2013-12-29,37.8,24.4,2.9,32.9,21.3,-1.9,98,88,80,30.28,29.79,16,10,23,0.00
2013-12-30,6.3,1.5,-5.2,3.7,-3.2,-9.4,89,80,70,30.40,30.27,8,2,11,0.00
2013-12-31,11.8,6.0,-5.9,9.2,3.1,-9.2,90,88,84,30.43,30.27,19,4,20,0.00
2014-1-1,17.4,12.7,10.1,15.7,10.3,6.7,93,90,86,30.33,30.25,19,16,23,0.00
2014-1-2,14.1,9.7,-0.7,9.6,5.5,-4.1,89,83,76,30.49,30.23,16,10,22,0.00